sensor_id;sensor_type;location;lat;lon;timestamp;pressure;altitude;pressure_sealevel;temperature;humidity
76553;BME280;65395;53.168;18.156;2023-06-10T00:01:15;101079.60;;;18.03;62.44
76553;BME280;65395;53.168;18.156;2023-06-10T00:03:42;101085.16;;;18.03;62.40
76553;BME280;65395;53.168;18.156;2023-06-10T00:06:10;101085.21;;;18.03;62.57
76553;BME280;65395;53.168;18.156;2023-06-10T00:08:36;101089.94;;;18.02;62.57
76553;BME280;65395;53.168;18.156;2023-06-10T00:11:04;101092.05;;;18.02;62.59
76553;BME280;65395;53.168;18.156;2023-06-10T00:13:30;101092.98;;;18.01;62.42
76553;BME280;65395;53.168;18.156;2023-06-10T00:15:57;101097.34;;;18.00;62.38
76553;BME280;65395;53.168;18.156;2023-06-10T00:18:24;101098.14;;;18.00;62.20
76553;BME280;65395;53.168;18.156;2023-06-10T00:20:53;101099.02;;;17.99;62.19
76553;BME280;65395;53.168;18.156;2023-06-10T00:23:21;101096.41;;;17.99;62.19
76553;BME280;65395;53.168;18.156;2023-06-10T00:25:48;101098.65;;;17.99;62.22
76553;BME280;65395;53.168;18.156;2023-06-10T00:28:15;101098.65;;;17.99;62.11
76553;BME280;65395;53.168;18.156;2023-06-10T00:30:42;101099.37;;;18.00;61.97
76553;BME280;65395;53.168;18.156;2023-06-10T00:33:10;101099.99;;;18.00;62.07
76553;BME280;65395;53.168;18.156;2023-06-10T00:35:37;101099.17;;;18.01;62.06
76553;BME280;65395;53.168;18.156;2023-06-10T00:38:04;101099.92;;;18.02;61.91
76553;BME280;65395;53.168;18.156;2023-06-10T00:40:30;101103.48;;;18.04;62.09
76553;BME280;65395;53.168;18.156;2023-06-10T00:42:58;101104.23;;;18.05;62.13
76553;BME280;65395;53.168;18.156;2023-06-10T00:45:25;101103.82;;;18.07;62.08
76553;BME280;65395;53.168;18.156;2023-06-10T00:47:51;101101.80;;;18.08;62.03
76553;BME280;65395;53.168;18.156;2023-06-10T00:50:18;101106.48;;;18.08;62.08
76553;BME280;65395;53.168;18.156;2023-06-10T00:52:45;101108.43;;;18.10;61.97
76553;BME280;65395;53.168;18.156;2023-06-10T00:55:16;101113.97;;;18.11;62.04
76553;BME280;65395;53.168;18.156;2023-06-10T00:57:45;101116.48;;;18.10;62.18
76553;BME280;65395;53.168;18.156;2023-06-10T01:00:12;101118.15;;;18.10;62.18
76553;BME280;65395;53.168;18.156;2023-06-10T01:02:39;101121.38;;;18.09;62.23
76553;BME280;65395;53.168;18.156;2023-06-10T01:05:07;101122.95;;;18.09;62.15
76553;BME280;65395;53.168;18.156;2023-06-10T01:07:38;101127.92;;;18.07;62.24
76553;BME280;65395;53.168;18.156;2023-06-10T01:10:19;101133.30;;;18.06;62.11
76553;BME280;65395;53.168;18.156;2023-06-10T01:15:31;101131.05;;;18.05;62.13
76553;BME280;65395;53.168;18.156;2023-06-10T01:18:01;101132.40;;;18.04;62.23
76553;BME280;65395;53.168;18.156;2023-06-10T01:20:31;101127.68;;;18.03;62.22
76553;BME280;65395;53.168;18.156;2023-06-10T01:22:59;101132.52;;;18.02;62.37
76553;BME280;65395;53.168;18.156;2023-06-10T01:25:27;101136.55;;;18.02;62.36
76553;BME280;65395;53.168;18.156;2023-06-10T01:33:34;101140.10;;;17.96;62.35
76553;BME280;65395;53.168;18.156;2023-06-10T01:36:03;101136.71;;;17.94;62.30
76553;BME280;65395;53.168;18.156;2023-06-10T01:38:33;101141.33;;;17.93;62.28
76553;BME280;65395;53.168;18.156;2023-06-10T01:41:03;101138.60;;;17.91;62.22
76553;BME280;65395;53.168;18.156;2023-06-10T01:43:33;101143.19;;;17.90;62.25
76553;BME280;65395;53.168;18.156;2023-06-10T01:46:01;101147.28;;;17.88;62.24
76553;BME280;65395;53.168;18.156;2023-06-10T01:48:27;101151.00;;;17.87;62.30
76553;BME280;65395;53.168;18.156;2023-06-10T01:50:54;101153.92;;;17.86;62.38
76553;BME280;65395;53.168;18.156;2023-06-10T01:53:22;101155.45;;;17.85;62.28
76553;BME280;65395;53.168;18.156;2023-06-10T01:55:49;101164.41;;;17.84;62.20
76553;BME280;65395;53.168;18.156;2023-06-10T01:58:17;101164.08;;;17.83;62.41
76553;BME280;65395;53.168;18.156;2023-06-10T02:00:45;101169.63;;;17.81;62.30
76553;BME280;65395;53.168;18.156;2023-06-10T02:03:11;101170.35;;;17.80;62.33
76553;BME280;65395;53.168;18.156;2023-06-10T02:05:39;101174.91;;;17.79;62.39
76553;BME280;65395;53.168;18.156;2023-06-10T02:08:05;101178.48;;;17.78;62.46
76553;BME280;65395;53.168;18.156;2023-06-10T02:10:32;101178.19;;;17.76;62.18
76553;BME280;65395;53.168;18.156;2023-06-10T02:12:59;101176.32;;;17.74;62.30
76553;BME280;65395;53.168;18.156;2023-06-10T02:15:26;101180.36;;;17.73;62.14
76553;BME280;65395;53.168;18.156;2023-06-10T02:17:52;101182.78;;;17.71;62.16
76553;BME280;65395;53.168;18.156;2023-06-10T02:20:21;101186.11;;;17.70;62.25
76553;BME280;65395;53.168;18.156;2023-06-10T02:22:47;101186.17;;;17.68;62.26
76553;BME280;65395;53.168;18.156;2023-06-10T02:25:14;101184.23;;;17.66;62.37
76553;BME280;65395;53.168;18.156;2023-06-10T02:27:41;101179.98;;;17.62;62.25
76553;BME280;65395;53.168;18.156;2023-06-10T02:30:08;101179.13;;;17.59;62.13
76553;BME280;65395;53.168;18.156;2023-06-10T02:32:37;101177.86;;;17.56;62.12
76553;BME280;65395;53.168;18.156;2023-06-10T02:35:04;101179.23;;;17.53;62.00
76553;BME280;65395;53.168;18.156;2023-06-10T02:37:31;101180.61;;;17.49;62.06
76553;BME280;65395;53.168;18.156;2023-06-10T02:39:58;101186.91;;;17.46;62.14
76553;BME280;65395;53.168;18.156;2023-06-10T02:42:24;101187.80;;;17.41;62.20
76553;BME280;65395;53.168;18.156;2023-06-10T02:44:51;101194.27;;;17.38;62.17
76553;BME280;65395;53.168;18.156;2023-06-10T02:47:27;101195.36;;;17.33;62.19
76553;BME280;65395;53.168;18.156;2023-06-10T02:49:54;101195.41;;;17.29;62.44
76553;BME280;65395;53.168;18.156;2023-06-10T02:52:20;101200.98;;;17.24;62.49
76553;BME280;65395;53.168;18.156;2023-06-10T02:54:48;101201.78;;;17.20;62.64
76553;BME280;65395;53.168;18.156;2023-06-10T02:57:15;101205.30;;;17.16;62.88
76553;BME280;65395;53.168;18.156;2023-06-10T02:59:41;101207.27;;;17.13;63.16
76553;BME280;65395;53.168;18.156;2023-06-10T03:02:09;101213.20;;;17.09;63.00
76553;BME280;65395;53.168;18.156;2023-06-10T03:04:41;101215.08;;;17.05;62.94
76553;BME280;65395;53.168;18.156;2023-06-10T03:07:13;101224.70;;;17.03;63.15
76553;BME280;65395;53.168;18.156;2023-06-10T03:09:40;101230.82;;;17.00;63.06
76553;BME280;65395;53.168;18.156;2023-06-10T03:12:09;101232.31;;;16.96;63.21
76553;BME280;65395;53.168;18.156;2023-06-10T03:14:41;101234.66;;;16.92;63.01
76553;BME280;65395;53.168;18.156;2023-06-10T03:17:08;101238.73;;;16.90;63.18
76553;BME280;65395;53.168;18.156;2023-06-10T03:19:36;101241.05;;;16.89;62.96
76553;BME280;65395;53.168;18.156;2023-06-10T03:22:13;101244.09;;;16.89;62.91
76553;BME280;65395;53.168;18.156;2023-06-10T03:24:45;101242.15;;;16.88;62.88
76553;BME280;65395;53.168;18.156;2023-06-10T03:27:13;101242.71;;;16.88;62.88
76553;BME280;65395;53.168;18.156;2023-06-10T03:29:42;101243.17;;;16.89;62.84
76553;BME280;65395;53.168;18.156;2023-06-10T03:32:08;101243.16;;;16.90;62.75
76553;BME280;65395;53.168;18.156;2023-06-10T03:34:36;101250.55;;;16.92;62.62
76553;BME280;65395;53.168;18.156;2023-06-10T03:37:03;101255.52;;;16.93;62.58
76553;BME280;65395;53.168;18.156;2023-06-10T03:39:30;101257.02;;;16.95;62.39
76553;BME280;65395;53.168;18.156;2023-06-10T03:41:58;101263.24;;;16.98;62.37
76553;BME280;65395;53.168;18.156;2023-06-10T03:44:25;101266.07;;;17.02;62.20
76553;BME280;65395;53.168;18.156;2023-06-10T03:46:54;101269.77;;;17.06;61.90
76553;BME280;65395;53.168;18.156;2023-06-10T03:49:21;101274.04;;;17.11;61.74
76553;BME280;65395;53.168;18.156;2023-06-10T03:51:53;101276.60;;;17.16;61.43
76553;BME280;65395;53.168;18.156;2023-06-10T03:54:20;101280.40;;;17.21;61.23
76553;BME280;65395;53.168;18.156;2023-06-10T03:56:47;101284.39;;;17.25;60.84
76553;BME280;65395;53.168;18.156;2023-06-10T03:59:15;101285.91;;;17.27;60.75
76553;BME280;65395;53.168;18.156;2023-06-10T04:01:42;101290.00;;;17.31;60.55
76553;BME280;65395;53.168;18.156;2023-06-10T04:04:11;101301.45;;;17.34;60.03
76553;BME280;65395;53.168;18.156;2023-06-10T04:06:38;101307.70;;;17.37;59.70
76553;BME280;65395;53.168;18.156;2023-06-10T04:09:05;101305.77;;;17.41;59.60
76553;BME280;65395;53.168;18.156;2023-06-10T04:11:32;101306.30;;;17.48;59.32
76553;BME280;65395;53.168;18.156;2023-06-10T04:13:59;101306.73;;;17.56;58.76
76553;BME280;65395;53.168;18.156;2023-06-10T04:16:26;101307.56;;;17.62;57.99
76553;BME280;65395;53.168;18.156;2023-06-10T04:18:53;101307.69;;;17.66;56.95
76553;BME280;65395;53.168;18.156;2023-06-10T04:21:21;101307.90;;;17.71;57.20
76553;BME280;65395;53.168;18.156;2023-06-10T04:23:48;101311.87;;;17.78;57.18
76553;BME280;65395;53.168;18.156;2023-06-10T04:26:15;101320.23;;;17.87;56.80
76553;BME280;65395;53.168;18.156;2023-06-10T04:28:43;101322.66;;;17.94;56.20
76553;BME280;65395;53.168;18.156;2023-06-10T04:31:09;101316.94;;;18.01;56.13
76553;BME280;65395;53.168;18.156;2023-06-10T04:33:38;101326.05;;;18.07;55.27
76553;BME280;65395;53.168;18.156;2023-06-10T04:36:05;101328.95;;;18.13;55.53
76553;BME280;65395;53.168;18.156;2023-06-10T04:38:33;101324.79;;;18.20;55.61
76553;BME280;65395;53.168;18.156;2023-06-10T04:41:00;101321.84;;;18.29;54.63
76553;BME280;65395;53.168;18.156;2023-06-10T04:43:29;101315.35;;;18.33;53.90
76553;BME280;65395;53.168;18.156;2023-06-10T04:45:57;101317.36;;;18.35;53.88
76553;BME280;65395;53.168;18.156;2023-06-10T04:48:24;101318.76;;;18.38;53.43
76553;BME280;65395;53.168;18.156;2023-06-10T04:50:51;101318.79;;;18.38;53.26
76553;BME280;65395;53.168;18.156;2023-06-10T04:53:18;101322.23;;;18.41;53.00
76553;BME280;65395;53.168;18.156;2023-06-10T04:55:46;101319.66;;;18.41;52.54
76553;BME280;65395;53.168;18.156;2023-06-10T04:58:12;101321.52;;;18.41;52.28
76553;BME280;65395;53.168;18.156;2023-06-10T05:00:39;101325.17;;;18.37;51.65
76553;BME280;65395;53.168;18.156;2023-06-10T05:03:06;101331.29;;;18.30;52.13
76553;BME280;65395;53.168;18.156;2023-06-10T05:05:33;101333.53;;;18.27;52.01
76553;BME280;65395;53.168;18.156;2023-06-10T05:07:59;101336.25;;;18.23;51.89
76553;BME280;65395;53.168;18.156;2023-06-10T05:10:26;101337.16;;;18.19;51.53
76553;BME280;65395;53.168;18.156;2023-06-10T05:12:53;101336.80;;;18.16;51.89
76553;BME280;65395;53.168;18.156;2023-06-10T05:15:19;101335.86;;;18.14;51.55
76553;BME280;65395;53.168;18.156;2023-06-10T05:17:46;101338.56;;;18.11;51.52
76553;BME280;65395;53.168;18.156;2023-06-10T05:20:12;101333.55;;;18.08;51.13
76553;BME280;65395;53.168;18.156;2023-06-10T05:22:40;101337.08;;;18.04;51.31
76553;BME280;65395;53.168;18.156;2023-06-10T05:25:07;101334.75;;;18.04;51.51
76553;BME280;65395;53.168;18.156;2023-06-10T05:27:34;101335.08;;;18.04;51.23
76553;BME280;65395;53.168;18.156;2023-06-10T05:30:01;101333.36;;;18.05;51.45
76553;BME280;65395;53.168;18.156;2023-06-10T05:32:28;101331.27;;;18.06;51.15
76553;BME280;65395;53.168;18.156;2023-06-10T05:34:55;101329.56;;;18.09;51.14
76553;BME280;65395;53.168;18.156;2023-06-10T05:37:22;101330.25;;;18.12;51.09
76553;BME280;65395;53.168;18.156;2023-06-10T05:39:48;101333.38;;;18.14;51.12
76553;BME280;65395;53.168;18.156;2023-06-10T05:42:15;101334.05;;;18.16;51.13
76553;BME280;65395;53.168;18.156;2023-06-10T05:44:41;101335.21;;;18.20;51.13
76553;BME280;65395;53.168;18.156;2023-06-10T05:47:08;101339.23;;;18.25;51.13
76553;BME280;65395;53.168;18.156;2023-06-10T05:49:35;101338.83;;;18.30;51.11
76553;BME280;65395;53.168;18.156;2023-06-10T05:52:02;101337.59;;;18.34;50.98
76553;BME280;65395;53.168;18.156;2023-06-10T05:54:29;101332.02;;;18.35;50.81
76553;BME280;65395;53.168;18.156;2023-06-10T05:56:55;101336.42;;;18.36;50.91
76553;BME280;65395;53.168;18.156;2023-06-10T05:59:22;101341.93;;;18.41;50.79
76553;BME280;65395;53.168;18.156;2023-06-10T06:01:49;101342.23;;;18.42;51.00
76553;BME280;65395;53.168;18.156;2023-06-10T06:04:16;101340.38;;;18.45;51.17
76553;BME280;65395;53.168;18.156;2023-06-10T06:06:43;101342.73;;;18.49;51.31
76553;BME280;65395;53.168;18.156;2023-06-10T06:09:09;101339.38;;;18.54;51.50
76553;BME280;65395;53.168;18.156;2023-06-10T06:11:36;101333.40;;;18.63;51.42
76553;BME280;65395;53.168;18.156;2023-06-10T06:14:03;101333.88;;;18.73;51.48
76553;BME280;65395;53.168;18.156;2023-06-10T06:16:29;101336.54;;;18.83;51.30
76553;BME280;65395;53.168;18.156;2023-06-10T06:18:56;101336.91;;;18.94;51.31
76553;BME280;65395;53.168;18.156;2023-06-10T06:21:23;101337.53;;;19.05;51.08
76553;BME280;65395;53.168;18.156;2023-06-10T06:23:49;101339.89;;;19.15;51.17
76553;BME280;65395;53.168;18.156;2023-06-10T06:26:17;101343.29;;;19.28;51.01
76553;BME280;65395;53.168;18.156;2023-06-10T06:28:44;101347.02;;;19.37;50.84
76553;BME280;65395;53.168;18.156;2023-06-10T06:31:10;101345.48;;;19.43;50.92
76553;BME280;65395;53.168;18.156;2023-06-10T06:33:37;101344.52;;;19.50;50.83
76553;BME280;65395;53.168;18.156;2023-06-10T06:36:04;101346.45;;;19.57;50.39
76553;BME280;65395;53.168;18.156;2023-06-10T06:38:31;101346.33;;;19.69;49.80
76553;BME280;65395;53.168;18.156;2023-06-10T06:40:59;101344.91;;;19.80;49.05
76553;BME280;65395;53.168;18.156;2023-06-10T06:43:29;101346.51;;;19.89;48.49
76553;BME280;65395;53.168;18.156;2023-06-10T06:46:04;101346.66;;;19.95;48.33
76553;BME280;65395;53.168;18.156;2023-06-10T06:48:30;101343.68;;;20.02;48.57
76553;BME280;65395;53.168;18.156;2023-06-10T06:50:57;101347.63;;;20.10;48.32
76553;BME280;65395;53.168;18.156;2023-06-10T06:53:25;101349.69;;;20.17;48.33
76553;BME280;65395;53.168;18.156;2023-06-10T06:55:52;101352.34;;;20.22;47.44
76553;BME280;65395;53.168;18.156;2023-06-10T06:58:18;101356.16;;;20.19;47.75
76553;BME280;65395;53.168;18.156;2023-06-10T07:00:45;101364.83;;;20.21;47.82
76553;BME280;65395;53.168;18.156;2023-06-10T07:03:12;101364.08;;;20.23;47.75
76553;BME280;65395;53.168;18.156;2023-06-10T07:05:38;101366.09;;;20.24;47.83
76553;BME280;65395;53.168;18.156;2023-06-10T07:08:05;101365.99;;;20.24;47.81
76553;BME280;65395;53.168;18.156;2023-06-10T07:10:32;101361.55;;;20.21;48.25
76553;BME280;65395;53.168;18.156;2023-06-10T07:12:59;101360.86;;;20.19;48.39
76553;BME280;65395;53.168;18.156;2023-06-10T07:15:26;101364.02;;;20.22;48.40
76553;BME280;65395;53.168;18.156;2023-06-10T07:17:53;101365.06;;;20.29;48.63
76553;BME280;65395;53.168;18.156;2023-06-10T07:20:20;101369.14;;;20.35;48.53
76553;BME280;65395;53.168;18.156;2023-06-10T07:22:46;101371.77;;;20.40;48.37
76553;BME280;65395;53.168;18.156;2023-06-10T07:25:13;101372.09;;;20.43;48.52
76553;BME280;65395;53.168;18.156;2023-06-10T07:27:39;101375.44;;;20.47;48.50
76553;BME280;65395;53.168;18.156;2023-06-10T07:30:07;101375.91;;;20.50;48.70
76553;BME280;65395;53.168;18.156;2023-06-10T07:32:34;101371.77;;;20.58;48.39
76553;BME280;65395;53.168;18.156;2023-06-10T07:35:01;101374.42;;;20.63;48.24
76553;BME280;65395;53.168;18.156;2023-06-10T07:37:28;101374.04;;;20.71;48.14
76553;BME280;65395;53.168;18.156;2023-06-10T07:39:56;101373.75;;;20.81;47.78
76553;BME280;65395;53.168;18.156;2023-06-10T07:42:22;101370.95;;;20.89;47.32
76553;BME280;65395;53.168;18.156;2023-06-10T07:44:49;101377.21;;;20.99;46.32
76553;BME280;65395;53.168;18.156;2023-06-10T07:47:15;101374.91;;;21.05;46.14
76553;BME280;65395;53.168;18.156;2023-06-10T07:49:42;101378.56;;;21.09;45.59
76553;BME280;65395;53.168;18.156;2023-06-10T07:52:09;101380.65;;;21.15;46.02
76553;BME280;65395;53.168;18.156;2023-06-10T07:54:36;101382.27;;;21.23;45.86
76553;BME280;65395;53.168;18.156;2023-06-10T07:57:03;101382.55;;;21.27;45.58
76553;BME280;65395;53.168;18.156;2023-06-10T07:59:30;101382.02;;;21.30;45.32
76553;BME280;65395;53.168;18.156;2023-06-10T08:01:56;101382.83;;;21.34;45.35
76553;BME280;65395;53.168;18.156;2023-06-10T08:04:23;101385.46;;;21.40;44.98
76553;BME280;65395;53.168;18.156;2023-06-10T08:06:50;101390.77;;;21.46;44.40
76553;BME280;65395;53.168;18.156;2023-06-10T08:09:17;101390.85;;;21.49;44.63
76553;BME280;65395;53.168;18.156;2023-06-10T08:11:46;101392.34;;;21.55;44.93
76553;BME280;65395;53.168;18.156;2023-06-10T08:14:13;101392.94;;;21.66;44.42
76553;BME280;65395;53.168;18.156;2023-06-10T08:16:40;101401.64;;;21.72;43.86
76553;BME280;65395;53.168;18.156;2023-06-10T08:19:07;101397.27;;;21.75;43.63
76553;BME280;65395;53.168;18.156;2023-06-10T08:21:35;101400.43;;;21.78;43.73
76553;BME280;65395;53.168;18.156;2023-06-10T08:24:03;101402.26;;;21.85;43.88
76553;BME280;65395;53.168;18.156;2023-06-10T08:26:30;101404.95;;;21.91;43.82
76553;BME280;65395;53.168;18.156;2023-06-10T08:28:57;101405.70;;;21.96;43.31
76553;BME280;65395;53.168;18.156;2023-06-10T08:31:24;101408.92;;;22.02;43.41
76553;BME280;65395;53.168;18.156;2023-06-10T08:33:51;101407.70;;;22.09;43.51
76553;BME280;65395;53.168;18.156;2023-06-10T08:36:18;101411.64;;;22.18;43.32
76553;BME280;65395;53.168;18.156;2023-06-10T08:38:44;101413.10;;;22.26;43.27
76553;BME280;65395;53.168;18.156;2023-06-10T08:41:14;101412.39;;;22.35;42.86
76553;BME280;65395;53.168;18.156;2023-06-10T08:44:04;101416.63;;;22.44;42.37
76553;BME280;65395;53.168;18.156;2023-06-10T08:46:36;101416.46;;;22.50;41.92
76553;BME280;65395;53.168;18.156;2023-06-10T08:49:05;101422.42;;;22.58;41.58
76553;BME280;65395;53.168;18.156;2023-06-10T08:51:35;101419.82;;;22.63;41.50
76553;BME280;65395;53.168;18.156;2023-06-10T08:54:11;101424.48;;;22.66;41.41
76553;BME280;65395;53.168;18.156;2023-06-10T08:56:39;101419.83;;;22.70;41.70
76553;BME280;65395;53.168;18.156;2023-06-10T08:59:08;101422.94;;;22.81;41.57
76553;BME280;65395;53.168;18.156;2023-06-10T09:01:35;101418.42;;;22.89;41.20
76553;BME280;65395;53.168;18.156;2023-06-10T09:04:03;101418.85;;;22.93;41.05
76553;BME280;65395;53.168;18.156;2023-06-10T09:06:32;101417.55;;;23.01;41.20
76553;BME280;65395;53.168;18.156;2023-06-10T09:09:00;101415.95;;;23.07;40.67
76553;BME280;65395;53.168;18.156;2023-06-10T09:11:27;101417.70;;;23.14;41.15
76553;BME280;65395;53.168;18.156;2023-06-10T09:13:53;101415.97;;;23.22;40.66
76553;BME280;65395;53.168;18.156;2023-06-10T09:16:20;101418.25;;;23.24;40.02
76553;BME280;65395;53.168;18.156;2023-06-10T09:18:48;101420.30;;;23.23;39.79
76553;BME280;65395;53.168;18.156;2023-06-10T09:21:15;101418.80;;;23.21;40.05
76553;BME280;65395;53.168;18.156;2023-06-10T09:23:42;101413.30;;;23.27;40.10
76553;BME280;65395;53.168;18.156;2023-06-10T09:26:09;101415.02;;;23.34;39.68
76553;BME280;65395;53.168;18.156;2023-06-10T09:28:37;101415.23;;;23.37;39.32
76553;BME280;65395;53.168;18.156;2023-06-10T09:31:06;101414.01;;;23.41;39.10
76553;BME280;65395;53.168;18.156;2023-06-10T09:33:39;101414.95;;;23.42;39.00
76553;BME280;65395;53.168;18.156;2023-06-10T09:36:07;101408.34;;;23.45;39.04
76553;BME280;65395;53.168;18.156;2023-06-10T09:38:34;101410.71;;;23.53;38.57
76553;BME280;65395;53.168;18.156;2023-06-10T09:41:02;101408.77;;;23.60;38.70
76553;BME280;65395;53.168;18.156;2023-06-10T09:43:40;101408.81;;;23.68;38.39
76553;BME280;65395;53.168;18.156;2023-06-10T09:46:14;101406.17;;;23.71;38.08
76553;BME280;65395;53.168;18.156;2023-06-10T09:48:43;101410.35;;;23.76;38.12
76553;BME280;65395;53.168;18.156;2023-06-10T09:51:12;101403.09;;;23.86;38.16
76553;BME280;65395;53.168;18.156;2023-06-10T09:53:39;101405.88;;;23.95;37.48
76553;BME280;65395;53.168;18.156;2023-06-10T09:56:06;101405.39;;;23.99;36.96
76553;BME280;65395;53.168;18.156;2023-06-10T09:58:35;101406.27;;;24.07;37.11
76553;BME280;65395;53.168;18.156;2023-06-10T10:01:05;101401.56;;;24.14;36.01
76553;BME280;65395;53.168;18.156;2023-06-10T10:03:32;101403.39;;;24.17;36.29
76553;BME280;65395;53.168;18.156;2023-06-10T10:06:00;101405.34;;;24.27;35.71
76553;BME280;65395;53.168;18.156;2023-06-10T10:08:27;101409.23;;;24.35;34.98
76553;BME280;65395;53.168;18.156;2023-06-10T10:10:56;101405.60;;;24.39;33.98
76553;BME280;65395;53.168;18.156;2023-06-10T10:13:25;101408.48;;;24.49;33.52
76553;BME280;65395;53.168;18.156;2023-06-10T10:15:56;101411.98;;;24.60;32.96
76553;BME280;65395;53.168;18.156;2023-06-10T10:18:29;101409.98;;;24.70;33.36
76553;BME280;65395;53.168;18.156;2023-06-10T10:21:00;101414.37;;;24.78;33.51
76553;BME280;65395;53.168;18.156;2023-06-10T10:23:32;101410.60;;;24.83;32.79
76553;BME280;65395;53.168;18.156;2023-06-10T10:26:04;101401.55;;;24.87;32.14
76553;BME280;65395;53.168;18.156;2023-06-10T10:28:41;101409.13;;;24.94;32.51
76553;BME280;65395;53.168;18.156;2023-06-10T10:31:12;101407.13;;;25.10;32.55
76553;BME280;65395;53.168;18.156;2023-06-10T10:33:52;101409.55;;;25.23;32.26
76553;BME280;65395;53.168;18.156;2023-06-10T10:36:22;101415.73;;;25.25;32.38
76553;BME280;65395;53.168;18.156;2023-06-10T10:38:50;101408.05;;;25.27;32.32
76553;BME280;65395;53.168;18.156;2023-06-10T10:41:18;101404.87;;;25.31;32.54
76553;BME280;65395;53.168;18.156;2023-06-10T10:43:46;101409.42;;;25.38;32.36
76553;BME280;65395;53.168;18.156;2023-06-10T10:46:16;101406.52;;;25.38;32.66
76553;BME280;65395;53.168;18.156;2023-06-10T10:48:44;101410.55;;;25.45;32.58
76553;BME280;65395;53.168;18.156;2023-06-10T10:51:11;101410.55;;;25.50;31.95
76553;BME280;65395;53.168;18.156;2023-06-10T10:53:38;101404.92;;;25.51;32.22
76553;BME280;65395;53.168;18.156;2023-06-10T10:56:07;101408.04;;;25.53;31.97
76553;BME280;65395;53.168;18.156;2023-06-10T10:58:35;101409.20;;;25.53;32.33
76553;BME280;65395;53.168;18.156;2023-06-10T11:01:11;101411.24;;;25.51;31.99
76553;BME280;65395;53.168;18.156;2023-06-10T11:03:44;101404.21;;;25.49;31.94
76553;BME280;65395;53.168;18.156;2023-06-10T11:06:15;101408.99;;;25.56;31.53
76553;BME280;65395;53.168;18.156;2023-06-10T11:08:49;101405.04;;;25.54;31.19
76553;BME280;65395;53.168;18.156;2023-06-10T11:11:25;101404.09;;;25.52;31.04
76553;BME280;65395;53.168;18.156;2023-06-10T11:14:07;101401.06;;;25.57;31.24
76553;BME280;65395;53.168;18.156;2023-06-10T11:16:43;101401.61;;;25.71;30.47
76553;BME280;65395;53.168;18.156;2023-06-10T11:19:10;101403.04;;;25.67;30.42
76553;BME280;65395;53.168;18.156;2023-06-10T11:22:00;101398.08;;;25.65;29.88
76553;BME280;65395;53.168;18.156;2023-06-10T11:24:29;101394.88;;;25.69;30.17
76553;BME280;65395;53.168;18.156;2023-06-10T11:27:14;101395.20;;;25.77;29.01
76553;BME280;65395;53.168;18.156;2023-06-10T11:29:57;101398.36;;;25.84;28.54
76553;BME280;65395;53.168;18.156;2023-06-10T11:32:29;101402.41;;;25.87;28.10
76553;BME280;65395;53.168;18.156;2023-06-10T11:34:57;101399.67;;;25.92;28.00
76553;BME280;65395;53.168;18.156;2023-06-10T11:37:24;101400.23;;;26.01;27.07
76553;BME280;65395;53.168;18.156;2023-06-10T11:39:52;101398.46;;;26.02;27.00
76553;BME280;65395;53.168;18.156;2023-06-10T11:42:21;101398.34;;;26.05;26.51
76553;BME280;65395;53.168;18.156;2023-06-10T11:44:50;101391.94;;;26.10;27.12
76553;BME280;65395;53.168;18.156;2023-06-10T11:47:18;101392.27;;;26.29;26.61
76553;BME280;65395;53.168;18.156;2023-06-10T11:49:46;101394.45;;;26.49;25.36
76553;BME280;65395;53.168;18.156;2023-06-10T11:52:31;101396.56;;;26.54;24.45
76553;BME280;65395;53.168;18.156;2023-06-10T11:55:00;101395.23;;;26.62;23.93
76553;BME280;65395;53.168;18.156;2023-06-10T11:57:27;101391.61;;;26.71;24.02
76553;BME280;65395;53.168;18.156;2023-06-10T11:59:54;101380.42;;;26.81;24.02
76553;BME280;65395;53.168;18.156;2023-06-10T12:02:21;101393.02;;;26.94;23.92
76553;BME280;65395;53.168;18.156;2023-06-10T12:04:48;101386.65;;;27.03;23.92
76553;BME280;65395;53.168;18.156;2023-06-10T12:07:18;101384.20;;;27.08;23.42
76553;BME280;65395;53.168;18.156;2023-06-10T12:09:46;101384.13;;;27.23;23.12
76553;BME280;65395;53.168;18.156;2023-06-10T12:12:13;101384.92;;;27.39;22.90
76553;BME280;65395;53.168;18.156;2023-06-10T12:14:56;101390.26;;;27.60;21.55
76553;BME280;65395;53.168;18.156;2023-06-10T12:17:37;101389.54;;;27.77;21.52
76553;BME280;65395;53.168;18.156;2023-06-10T12:20:07;101386.98;;;27.96;20.63
76553;BME280;65395;53.168;18.156;2023-06-10T12:22:43;101389.39;;;28.12;20.86
76553;BME280;65395;53.168;18.156;2023-06-10T12:25:11;101387.86;;;28.26;19.57
76553;BME280;65395;53.168;18.156;2023-06-10T12:27:39;101391.98;;;28.24;19.41
76553;BME280;65395;53.168;18.156;2023-06-10T12:30:07;101387.09;;;28.20;20.01
76553;BME280;65395;53.168;18.156;2023-06-10T12:32:43;101388.95;;;28.24;18.92
76553;BME280;65395;53.168;18.156;2023-06-10T12:35:11;101382.74;;;28.26;18.85
76553;BME280;65395;53.168;18.156;2023-06-10T12:37:40;101384.06;;;28.35;19.01
76553;BME280;65395;53.168;18.156;2023-06-10T12:40:08;101383.36;;;28.49;18.80
76553;BME280;65395;53.168;18.156;2023-06-10T12:42:36;101385.69;;;28.55;18.68
76553;BME280;65395;53.168;18.156;2023-06-10T12:45:04;101381.58;;;28.54;19.09
76553;BME280;65395;53.168;18.156;2023-06-10T12:47:34;101386.48;;;28.62;19.01
76553;BME280;65395;53.168;18.156;2023-06-10T12:50:02;101385.23;;;28.68;19.46
76553;BME280;65395;53.168;18.156;2023-06-10T12:52:30;101386.40;;;28.78;19.90
76553;BME280;65395;53.168;18.156;2023-06-10T12:54:56;101377.57;;;28.99;19.92